sensor_id;sensor_type;location;lat;lon;timestamp;pressure;altitude;pressure_sealevel;temperature;humidity
10921;BME280;5513;50.580;8.818;2023-04-29T00:00:06;98691.81;;;12.82;100.00
10921;BME280;5513;50.580;8.818;2023-04-29T00:02:35;98684.09;;;12.79;100.00
10921;BME280;5513;50.580;8.818;2023-04-29T00:05:04;98683.69;;;12.83;100.00
10921;BME280;5513;50.580;8.818;2023-04-29T00:07:34;98681.03;;;12.83;100.00
10921;BME280;5513;50.580;8.818;2023-04-29T00:10:04;98681.66;;;12.87;100.00
10921;BME280;5513;50.580;8.818;2023-04-29T00:12:33;98676.09;;;12.90;100.00
10921;BME280;5513;50.580;8.818;2023-04-29T00:15:01;98674.66;;;12.86;100.00
10921;BME280;5513;50.580;8.818;2023-04-29T00:17:30;98677.44;;;12.84;100.00
10921;BME280;5513;50.580;8.818;2023-04-29T00:19:59;98678.63;;;12.80;100.00
10921;BME280;5513;50.580;8.818;2023-04-29T00:22:27;98676.09;;;12.90;100.00
10921;BME280;5513;50.580;8.818;2023-04-29T00:24:58;98677.53;;;12.83;100.00
10921;BME280;5513;50.580;8.818;2023-04-29T00:27:26;98676.91;;;12.90;100.00
10921;BME280;5513;50.580;8.818;2023-04-29T00:29:56;98676.34;;;12.87;100.00
10921;BME280;5513;50.580;8.818;2023-04-29T00:32:24;98676.47;;;12.85;100.00
10921;BME280;5513;50.580;8.818;2023-04-29T00:34:52;98669.22;;;12.87;100.00
10921;BME280;5513;50.580;8.818;2023-04-29T00:37:22;98680.81;;;12.86;100.00
10921;BME280;5513;50.580;8.818;2023-04-29T00:39:50;98675.75;;;12.72;100.00
10921;BME280;5513;50.580;8.818;2023-04-29T00:42:21;98678.19;;;12.75;100.00
10921;BME280;5513;50.580;8.818;2023-04-29T00:44:49;98680.94;;;12.74;100.00
10921;BME280;5513;50.580;8.818;2023-04-29T00:47:17;98688.81;;;12.64;100.00
10921;BME280;5513;50.580;8.818;2023-04-29T00:49:46;98695.00;;;12.65;100.00
10921;BME280;5513;50.580;8.818;2023-04-29T00:52:15;98695.81;;;12.54;100.00
10921;BME280;5513;50.580;8.818;2023-04-29T00:54:44;98699.22;;;12.56;100.00
10921;BME280;5513;50.580;8.818;2023-04-29T00:57:14;98705.84;;;12.50;100.00
10921;BME280;5513;50.580;8.818;2023-04-29T00:59:43;98710.91;;;12.53;100.00
10921;BME280;5513;50.580;8.818;2023-04-29T01:02:13;98712.47;;;12.45;100.00
10921;BME280;5513;50.580;8.818;2023-04-29T01:04:41;98718.75;;;12.44;100.00
10921;BME280;5513;50.580;8.818;2023-04-29T01:07:14;98730.47;;;12.52;100.00
10921;BME280;5513;50.580;8.818;2023-04-29T01:09:58;98728.19;;;12.48;100.00
10921;BME280;5513;50.580;8.818;2023-04-29T01:12:32;98735.53;;;12.33;100.00
10921;BME280;5513;50.580;8.818;2023-04-29T01:15:14;98730.97;;;12.46;100.00
10921;BME280;5513;50.580;8.818;2023-04-29T01:17:49;98735.66;;;12.43;100.00
10921;BME280;5513;50.580;8.818;2023-04-29T01:20:19;98737.25;;;12.45;100.00
10921;BME280;5513;50.580;8.818;2023-04-29T01:22:49;98733.50;;;12.37;100.00
10921;BME280;5513;50.580;8.818;2023-04-29T01:25:19;98737.84;;;12.38;100.00
10921;BME280;5513;50.580;8.818;2023-04-29T01:27:52;98746.41;;;12.30;100.00
10921;BME280;5513;50.580;8.818;2023-04-29T01:30:31;98744.59;;;12.30;100.00
10921;BME280;5513;50.580;8.818;2023-04-29T01:33:09;98739.88;;;12.12;100.00
10921;BME280;5513;50.580;8.818;2023-04-29T01:35:49;98748.94;;;12.20;100.00
10921;BME280;5513;50.580;8.818;2023-04-29T01:38:25;98746.75;;;12.25;100.00
10921;BME280;5513;50.580;8.818;2023-04-29T01:41:08;98742.06;;;12.18;100.00
10921;BME280;5513;50.580;8.818;2023-04-29T01:43:37;98741.31;;;12.16;100.00
10921;BME280;5513;50.580;8.818;2023-04-29T01:46:08;98747.84;;;12.12;100.00
10921;BME280;5513;50.580;8.818;2023-04-29T01:48:38;98741.44;;;12.14;100.00
10921;BME280;5513;50.580;8.818;2023-04-29T01:51:06;98746.53;;;12.28;100.00
10921;BME280;5513;50.580;8.818;2023-04-29T01:53:35;98752.94;;;12.26;100.00
10921;BME280;5513;50.580;8.818;2023-04-29T01:56:05;98745.81;;;12.26;100.00
10921;BME280;5513;50.580;8.818;2023-04-29T01:58:34;98735.78;;;12.19;100.00
10921;BME280;5513;50.580;8.818;2023-04-29T02:01:02;98743.16;;;12.26;100.00
10921;BME280;5513;50.580;8.818;2023-04-29T02:03:30;98745.56;;;12.18;100.00
10921;BME280;5513;50.580;8.818;2023-04-29T02:05:58;98748.69;;;12.23;100.00
10921;BME280;5513;50.580;8.818;2023-04-29T02:08:27;98759.81;;;12.28;100.00
10921;BME280;5513;50.580;8.818;2023-04-29T02:10:56;98754.38;;;12.19;100.00
10921;BME280;5513;50.580;8.818;2023-04-29T02:13:27;98746.66;;;12.27;100.00
10921;BME280;5513;50.580;8.818;2023-04-29T02:15:55;98756.53;;;12.25;100.00
10921;BME280;5513;50.580;8.818;2023-04-29T02:18:23;98758.97;;;12.28;100.00
10921;BME280;5513;50.580;8.818;2023-04-29T02:20:58;98767.53;;;12.20;100.00
10921;BME280;5513;50.580;8.818;2023-04-29T02:23:27;98764.84;;;11.98;100.00
10921;BME280;5513;50.580;8.818;2023-04-29T02:25:57;98770.31;;;12.19;100.00
10921;BME280;5513;50.580;8.818;2023-04-29T02:28:27;98761.84;;;12.14;100.00
10921;BME280;5513;50.580;8.818;2023-04-29T02:30:55;98767.66;;;12.19;100.00
10921;BME280;5513;50.580;8.818;2023-04-29T02:33:23;98769.47;;;12.18;100.00
10921;BME280;5513;50.580;8.818;2023-04-29T02:35:53;98776.19;;;12.11;100.00
10921;BME280;5513;50.580;8.818;2023-04-29T02:38:21;98782.09;;;12.15;100.00
10921;BME280;5513;50.580;8.818;2023-04-29T02:40:49;98781.63;;;12.10;100.00
10921;BME280;5513;50.580;8.818;2023-04-29T02:43:17;98793.94;;;12.11;100.00
10921;BME280;5513;50.580;8.818;2023-04-29T02:45:47;98795.03;;;12.08;100.00
10921;BME280;5513;50.580;8.818;2023-04-29T02:48:15;98803.59;;;12.12;100.00
10921;BME280;5513;50.580;8.818;2023-04-29T02:50:44;98804.09;;;12.17;100.00
10921;BME280;5513;50.580;8.818;2023-04-29T02:53:12;98813.50;;;12.21;100.00
10921;BME280;5513;50.580;8.818;2023-04-29T02:55:40;98814.72;;;12.17;100.00
10921;BME280;5513;50.580;8.818;2023-04-29T02:58:09;98814.72;;;12.17;100.00
